Pagrindinis puslapis
METAR-TAF:

METAR-TAF

Oro uostai :

Erfurtas, Vokietija

platuma: 50-59N, ilguma: 010-58E, Aukštis: 315 m

Dabartinis oras

Ataskaita buvo paskelbta 12 minutes, ne 21:20 UTC
Vėjas 12 kt iš Pietų/Pietvakarių
Temperatūra 8°C
Drėgmė 76%
Slėgis 1008 hPa
Matomumas 10 km arba daugiau
nėra debesų žemiau 1500 m ir nėra kamuolinių lietaus debesų

METAR: EDDE 272120Z 20012KT CAVOK 08/04 Q1008

Laikas: 22:32 (21:32 UTC)

Prognozė

Ataskaita buvo paskelbta 4 valandos ir 32 minutes, ne 17:00 UTC
Prognozė galioja nuo 27 metu 18 UTC su 28 metu 18 UTC
Vėjas 10 kt iš Pietų su gūsio iki 20 kt
Matomumas 10 km arba daugiau
Mažai debesys ne aukštis 3500 ft
Laikinai
nuo 27 metu 23 UTC su 28 metu 15 UTC
Vėjas 15 kt iš Pietų su gūsio iki 25 kt

TAF: EDDE 271700Z 2718/2818 19010G20KT 9999 FEW035 TEMPO 2723/2815 19015G25KT

Orai ataskaitas ir orų prognozės (METAR, TAF).

turimą stotys yra geltonos ir raudonos taškus žemėlapyje.

Perkelti pele per norėdami pamatyti stoties vardą.

Tada spustelėkite, norėdami matyti oro stebėjimo ir prognozės.

Norėdami pakeisti žemėlapį: spustelėkite ant žalios mygtukų su juodo kryžiaus žemyn,; žalią mygtuką su brūkšneliu, jei norite nutolinti; arba žalių rodyklių gretimoms žemėlapius.


METAR-TAF: